createdAt,value
2017-12-09T00:01:08.836Z,2.80
2017-12-09T00:03:37.048Z,2.70
2017-12-09T00:06:05.315Z,2.70
2017-12-09T00:08:33.648Z,2.70
2017-12-09T00:11:01.866Z,2.80
2017-12-09T00:13:30.137Z,2.80
2017-12-09T00:15:58.541Z,2.80
2017-12-09T00:18:27.578Z,2.80
2017-12-09T00:20:55.833Z,2.70
2017-12-09T00:23:24.614Z,2.80
2017-12-09T00:25:52.926Z,2.80
2017-12-09T00:28:21.151Z,2.80
2017-12-09T00:30:49.659Z,2.70
2017-12-09T00:33:17.976Z,2.80
2017-12-09T00:35:46.216Z,2.80
2017-12-09T00:38:14.537Z,2.80
2017-12-09T00:40:43.597Z,2.90
2017-12-09T00:43:11.820Z,2.80
2017-12-09T00:45:40.858Z,2.80
2017-12-09T00:48:09.161Z,2.80
2017-12-09T00:50:37.457Z,2.70
2017-12-09T00:53:05.728Z,2.70
2017-12-09T00:55:33.963Z,2.70
2017-12-09T00:58:02.187Z,2.70
2017-12-09T01:00:31.223Z,2.60
2017-12-09T01:02:59.477Z,2.60
2017-12-09T01:05:27.706Z,2.70
2017-12-09T01:07:55.973Z,2.70
2017-12-09T01:10:24.221Z,2.70
2017-12-09T01:12:53.264Z,2.60
2017-12-09T01:15:39.375Z,2.50
2017-12-09T01:18:25.415Z,2.60
2017-12-09T01:20:53.682Z,2.60
2017-12-09T01:23:21.919Z,2.70
2017-12-09T01:25:50.927Z,2.60
2017-12-09T01:28:19.236Z,2.50
2017-12-09T01:30:47.458Z,2.60
2017-12-09T01:33:16.442Z,2.50
2017-12-09T01:35:44.718Z,2.50
2017-12-09T01:38:12.974Z,2.50
2017-12-09T01:40:41.214Z,2.50
2017-12-09T01:43:09.483Z,2.50
2017-12-09T01:45:37.728Z,2.40
2017-12-09T01:48:06.726Z,2.50
2017-12-09T01:50:35.786Z,2.50
2017-12-09T01:53:04.014Z,2.50
2017-12-09T01:55:32.233Z,2.40
2017-12-09T01:58:00.528Z,2.40
2017-12-09T02:00:28.770Z,2.30
2017-12-09T02:02:57.001Z,2.30
2017-12-09T02:05:25.265Z,2.40
2017-12-09T02:07:54.243Z,2.40
2017-12-09T02:10:22.516Z,2.30
2017-12-09T02:12:50.795Z,2.30
2017-12-09T02:15:19.084Z,2.30
2017-12-09T02:17:48.085Z,2.40
2017-12-09T02:20:17.130Z,2.30
2017-12-09T02:22:45.400Z,2.30
2017-12-09T02:25:13.639Z,2.20
2017-12-09T02:27:41.963Z,2.20
2017-12-09T02:30:10.246Z,2.10
2017-12-09T02:32:38.520Z,2.10
2017-12-09T02:35:06.827Z,2.10
2017-12-09T02:37:35.855Z,1.90
2017-12-09T02:40:04.082Z,1.90
2017-12-09T02:42:32.360Z,2.00
2017-12-09T02:45:00.584Z,2.00
2017-12-09T02:47:28.831Z,2.00
2017-12-09T02:49:57.870Z,2.00
2017-12-09T02:52:26.117Z,1.90
2017-12-09T02:54:54.338Z,1.90
2017-12-09T02:57:22.596Z,1.90
2017-12-09T02:59:50.829Z,1.80
2017-12-09T03:02:19.814Z,1.90
2017-12-09T03:04:48.846Z,2.00
2017-12-09T03:07:17.096Z,2.00
2017-12-09T03:09:45.323Z,1.80
2017-12-09T03:12:13.610Z,1.80
2017-12-09T03:14:41.834Z,1.80
2017-12-09T03:17:10.058Z,1.90
2017-12-09T03:19:38.395Z,1.70
2017-12-09T03:22:06.608Z,1.70
2017-12-09T03:24:34.886Z,1.80
2017-12-09T03:27:03.200Z,1.80
2017-12-09T03:29:31.504Z,1.80
2017-12-09T03:31:59.751Z,1.90
2017-12-09T03:34:28.079Z,3.00
2017-12-09T03:36:56.332Z,2.20
2017-12-09T03:39:24.564Z,2.40
2017-12-09T03:41:53.644Z,2.30
2017-12-09T03:44:21.862Z,2.30
2017-12-09T03:46:50.094Z,2.20
2017-12-09T03:49:18.430Z,2.40
2017-12-09T03:51:46.720Z,1.90
2017-12-09T03:54:14.977Z,1.50
2017-12-09T03:56:43.282Z,1.50
2017-12-09T03:59:11.510Z,1.40
2017-12-09T04:01:39.792Z,1.40
2017-12-09T04:04:08.229Z,1.40
2017-12-09T04:06:37.280Z,1.50
2017-12-09T04:09:05.539Z,1.50
2017-12-09T04:11:33.812Z,1.50
2017-12-09T04:14:02.084Z,1.50
2017-12-09T04:16:30.384Z,1.40
2017-12-09T04:18:58.696Z,1.40
2017-12-09T04:21:26.990Z,1.40
2017-12-09T04:23:56.033Z,1.30
2017-12-09T04:26:24.335Z,1.30
2017-12-09T04:28:52.581Z,1.40
2017-12-09T04:31:20.840Z,1.40
2017-12-09T04:33:49.128Z,1.50
2017-12-09T04:36:17.396Z,1.70
2017-12-09T04:38:45.655Z,1.60
2017-12-09T04:41:13.963Z,1.50
2017-12-09T04:43:42.219Z,1.60
2017-12-09T04:46:10.473Z,1.70
2017-12-09T04:48:38.761Z,1.50
2017-12-09T04:51:07.007Z,1.30
2017-12-09T04:53:36.038Z,1.60
2017-12-09T04:56:04.317Z,1.60
2017-12-09T04:58:32.561Z,1.50
2017-12-09T05:01:01.592Z,1.10
2017-12-09T05:03:29.891Z,1.10
2017-12-09T05:05:58.109Z,1.10
2017-12-09T05:08:27.125Z,1.10
2017-12-09T05:10:55.437Z,1.10
2017-12-09T05:13:23.669Z,1.10
2017-12-09T05:15:51.942Z,1.00
2017-12-09T05:18:20.214Z,1.00
2017-12-09T05:20:48.502Z,1.00
2017-12-09T05:23:17.518Z,0.90
2017-12-09T05:25:45.799Z,0.90
2017-12-09T05:28:14.045Z,0.90
2017-12-09T05:30:43.076Z,0.80
2017-12-09T05:33:11.335Z,0.80
2017-12-09T05:35:39.557Z,0.80
2017-12-09T05:38:08.568Z,1.10
2017-12-09T05:40:36.821Z,1.10
2017-12-09T05:43:05.032Z,1.20
2017-12-09T05:45:33.268Z,1.50
2017-12-09T05:48:01.524Z,1.60
2017-12-09T05:50:29.735Z,1.30
2017-12-09T05:52:58.760Z,1.00
2017-12-09T05:55:27.046Z,1.00
2017-12-09T05:57:55.268Z,0.90
2017-12-09T06:00:24.266Z,1.00
2017-12-09T06:02:53.503Z,1.00
2017-12-09T06:05:22.692Z,1.10
2017-12-09T06:07:50.940Z,1.10
2017-12-09T06:10:19.968Z,2.20
2017-12-09T06:12:48.190Z,2.20
2017-12-09T06:15:17.210Z,2.90
2017-12-09T06:17:45.580Z,2.90
2017-12-09T06:20:14.569Z,3.20
2017-12-09T06:22:43.549Z,3.20
2017-12-09T06:25:11.987Z,3.20
2017-12-09T06:27:40.252Z,3.30
2017-12-09T06:30:08.496Z,3.40
2017-12-09T06:32:37.573Z,2.90
2017-12-09T06:35:06.119Z,2.90
2017-12-09T06:37:34.357Z,3.00
2017-12-09T06:40:03.469Z,2.50
2017-12-09T06:42:31.697Z,1.90
2017-12-09T06:45:00.835Z,2.70
2017-12-09T06:47:29.140Z,3.00
2017-12-09T06:49:58.144Z,2.20
2017-12-09T06:52:27.111Z,2.20
2017-12-09T06:54:55.422Z,1.80
2017-12-09T06:57:23.659Z,2.00
2017-12-09T06:59:51.886Z,2.10
2017-12-09T07:02:20.184Z,1.60
2017-12-09T07:04:48.712Z,1.70
2017-12-09T07:07:16.947Z,2.00
2017-12-09T07:09:45.258Z,2.20
2017-12-09T07:12:13.739Z,1.80
2017-12-09T07:14:41.961Z,1.80
2017-12-09T07:17:11.008Z,1.40
2017-12-09T07:19:39.246Z,1.40
2017-12-09T07:22:07.547Z,1.10
2017-12-09T07:24:35.778Z,1.20
2017-12-09T07:27:04.775Z,1.10
2017-12-09T07:29:33.938Z,1.00
2017-12-09T07:32:02.201Z,1.00
2017-12-09T07:34:30.427Z,1.40
2017-12-09T07:36:59.511Z,2.60
2017-12-09T07:39:28.480Z,2.30
2017-12-09T07:41:56.690Z,2.30
2017-12-09T07:44:25.077Z,2.50
2017-12-09T07:46:53.319Z,2.10
2017-12-09T07:49:21.548Z,2.30
2017-12-09T07:51:49.794Z,2.10
2017-12-09T07:54:19.172Z,2.40
2017-12-09T07:56:48.197Z,2.80
2017-12-09T07:59:19.040Z,2.80
2017-12-09T08:01:47.297Z,2.80
2017-12-09T08:04:15.692Z,2.50
2017-12-09T08:06:56.690Z,2.40
2017-12-09T08:09:25.833Z,2.80
2017-12-09T08:11:54.825Z,2.60
2017-12-09T08:14:23.838Z,2.60
2017-12-09T08:16:52.147Z,2.60
2017-12-09T08:19:20.433Z,2.40
2017-12-09T08:24:45.916Z,3.30
2017-12-09T08:27:14.590Z,3.60
2017-12-09T08:29:43.618Z,3.80
2017-12-09T08:32:12.489Z,3.80
2017-12-09T08:34:40.724Z,3.90
2017-12-09T08:37:08.962Z,4.00
2017-12-09T08:39:37.264Z,3.90
2017-12-09T08:42:05.578Z,4.00
2017-12-09T08:44:35.545Z,4.00
2017-12-09T08:47:05.775Z,3.90
2017-12-09T08:49:34.017Z,4.10
2017-12-09T08:52:02.332Z,4.20
2017-12-09T08:54:30.622Z,4.20
2017-12-09T08:56:58.929Z,4.30
2017-12-09T08:59:27.187Z,4.50
2017-12-09T09:01:56.459Z,3.80
2017-12-09T09:04:24.691Z,3.80
2017-12-09T09:06:52.985Z,4.20
2017-12-09T09:09:21.305Z,4.90
2017-12-09T09:11:49.527Z,4.60
2017-12-09T09:14:17.917Z,4.90
2017-12-09T09:16:46.183Z,4.90
2017-12-09T09:19:14.427Z,5.00
2017-12-09T09:21:42.723Z,4.80
2017-12-09T09:24:10.949Z,4.50
2017-12-09T09:26:39.179Z,4.50
2017-12-09T09:29:07.459Z,4.80
2017-12-09T09:31:35.724Z,5.20
2017-12-09T09:34:03.938Z,5.30
2017-12-09T09:36:32.229Z,5.70
2017-12-09T09:39:00.487Z,5.70
2017-12-09T09:41:28.743Z,5.30
2017-12-09T09:43:57.036Z,4.60
2017-12-09T09:46:25.321Z,3.70
2017-12-09T09:48:54.384Z,3.50
2017-12-09T09:51:22.690Z,3.50
2017-12-09T09:53:50.928Z,3.60
2017-12-09T09:56:19.219Z,3.80
2017-12-09T09:58:47.483Z,3.80
2017-12-09T10:01:15.764Z,3.20
2017-12-09T10:03:44.944Z,3.40
2017-12-09T10:06:13.351Z,3.40
2017-12-09T10:08:41.634Z,3.10
2017-12-09T10:11:09.879Z,2.80
2017-12-09T10:13:38.205Z,2.90
2017-12-09T10:16:07.271Z,2.70
2017-12-09T10:18:35.576Z,2.70
2017-12-09T10:21:03.918Z,2.50
2017-12-09T10:23:32.204Z,2.50
2017-12-09T10:26:00.476Z,2.60
2017-12-09T10:28:29.167Z,2.70
2017-12-09T10:30:57.490Z,2.50
2017-12-09T10:33:26.561Z,2.70
2017-12-09T10:35:55.329Z,2.70
2017-12-09T10:38:23.843Z,2.50
2017-12-09T10:40:52.219Z,2.40
2017-12-09T10:43:21.375Z,2.40
2017-12-09T10:45:49.713Z,2.40
2017-12-09T10:48:17.975Z,2.40
2017-12-09T10:50:47.333Z,2.50
2017-12-09T10:53:15.605Z,2.50
2017-12-09T10:55:43.940Z,2.50
2017-12-09T10:58:13.011Z,2.70
2017-12-09T11:00:41.338Z,2.70
2017-12-09T11:03:09.597Z,2.80
2017-12-09T11:05:38.094Z,2.80
2017-12-09T11:08:06.346Z,2.80
2017-12-09T11:10:35.336Z,2.80
2017-12-09T11:13:04.468Z,2.70
2017-12-09T11:15:32.710Z,2.60
2017-12-09T11:18:01.072Z,2.70
2017-12-09T11:20:29.370Z,3.00
2017-12-09T11:22:57.618Z,3.00
2017-12-09T11:25:25.943Z,3.00
2017-12-09T11:27:54.222Z,3.00
2017-12-09T11:30:22.442Z,3.00
2017-12-09T11:32:51.471Z,3.00
2017-12-09T11:35:19.759Z,2.90
2017-12-09T11:37:48.029Z,3.00
2017-12-09T11:40:16.277Z,3.00
2017-12-09T11:42:45.375Z,3.00
2017-12-09T11:45:14.392Z,2.90
2017-12-09T11:47:42.642Z,2.90
2017-12-09T11:50:11.722Z,3.00
2017-12-09T11:52:39.960Z,2.90
2017-12-09T11:55:08.212Z,3.00
2017-12-09T11:57:36.470Z,3.00
2017-12-09T12:00:04.793Z,3.10
2017-12-09T12:02:33.022Z,3.10
2017-12-09T12:05:01.375Z,3.20
2017-12-09T12:07:29.666Z,3.20
2017-12-09T12:09:57.886Z,3.10
2017-12-09T12:12:26.209Z,3.30
2017-12-09T12:14:55.210Z,3.30
2017-12-09T12:17:24.222Z,3.30
2017-12-09T12:19:52.489Z,3.30
2017-12-09T12:22:21.487Z,3.20
2017-12-09T12:24:49.737Z,3.20
2017-12-09T12:27:18.030Z,3.30
2017-12-09T12:29:47.041Z,3.30
2017-12-09T12:32:15.363Z,3.30
2017-12-09T12:34:43.755Z,3.40
2017-12-09T12:37:12.019Z,3.40
2017-12-09T12:39:40.316Z,3.50
2017-12-09T12:42:08.925Z,3.60
2017-12-09T12:44:37.163Z,3.70
2017-12-09T12:47:05.415Z,3.60
2017-12-09T12:49:33.864Z,3.60
2017-12-09T12:52:02.142Z,3.60
2017-12-09T12:54:30.389Z,3.70
2017-12-09T12:56:59.502Z,3.50
2017-12-09T12:59:27.879Z,3.50
2017-12-09T13:01:56.094Z,3.60
2017-12-09T13:04:24.412Z,3.80
2017-12-09T13:06:53.464Z,3.60
2017-12-09T13:09:21.864Z,3.60
2017-12-09T13:11:50.961Z,3.70
2017-12-09T13:14:19.298Z,3.80
2017-12-09T13:16:47.533Z,3.80
2017-12-09T13:19:16.669Z,3.50
2017-12-09T13:21:44.935Z,3.40
2017-12-09T13:24:13.190Z,3.30
2017-12-09T13:26:41.553Z,3.20
2017-12-09T13:29:10.634Z,3.60
2017-12-09T13:31:39.999Z,3.50
2017-12-09T13:34:08.436Z,3.50
2017-12-09T13:36:36.770Z,3.50
2017-12-09T13:39:05.010Z,3.80
2017-12-09T13:41:33.243Z,3.60
2017-12-09T13:44:01.582Z,3.80
2017-12-09T13:46:29.820Z,3.70
2017-12-09T13:48:58.098Z,3.50
2017-12-09T13:51:26.432Z,3.50
2017-12-09T13:53:54.714Z,3.60
2017-12-09T13:56:22.974Z,3.50
2017-12-09T13:58:51.344Z,3.50
2017-12-09T14:01:19.659Z,3.50
2017-12-09T14:03:47.898Z,5.80
2017-12-09T14:06:16.143Z,3.50
2017-12-09T14:08:44.457Z,3.30
2017-12-09T14:11:12.702Z,3.20
2017-12-09T14:13:41.011Z,3.10
2017-12-09T14:16:10.197Z,3.10
2017-12-09T14:18:38.440Z,3.10
2017-12-09T14:21:07.370Z,3.10
2017-12-09T14:23:35.712Z,2.80
2017-12-09T14:26:03.974Z,2.90
2017-12-09T14:28:32.236Z,3.00
2017-12-09T14:31:00.601Z,3.30
2017-12-09T14:33:28.985Z,3.10
2017-12-09T14:35:58.466Z,3.10
2017-12-09T14:38:27.586Z,2.90
2017-12-09T14:40:56.788Z,2.60
2017-12-09T14:43:25.949Z,2.50
2017-12-09T14:45:54.560Z,2.50
2017-12-09T14:48:23.025Z,2.60
2017-12-09T14:50:52.204Z,2.60
2017-12-09T14:53:20.490Z,2.60
2017-12-09T14:55:48.760Z,2.60
2017-12-09T14:58:17.026Z,2.30
2017-12-09T15:00:46.075Z,2.00
2017-12-09T15:03:15.351Z,2.00
2017-12-09T15:05:43.601Z,2.00
2017-12-09T15:08:11.874Z,2.40
2017-12-09T15:10:40.121Z,2.30
2017-12-09T15:13:08.346Z,2.60
2017-12-09T15:15:36.607Z,2.60
2017-12-09T15:18:04.948Z,2.30
2017-12-09T15:20:33.268Z,2.30
2017-12-09T15:23:01.577Z,2.50
2017-12-09T15:25:31.009Z,2.60
2017-12-09T15:28:00.882Z,2.60
2017-12-09T15:30:29.389Z,3.30
2017-12-09T15:32:57.623Z,2.80
2017-12-09T15:35:26.013Z,2.40
2017-12-09T15:37:55.076Z,2.60
2017-12-09T15:40:23.350Z,2.60
2017-12-09T15:42:52.145Z,2.40
2017-12-09T15:45:20.444Z,2.30
2017-12-09T15:47:49.486Z,2.90
2017-12-09T15:50:17.763Z,2.90
2017-12-09T15:52:46.046Z,2.10
2017-12-09T15:55:14.286Z,2.90
2017-12-09T15:57:43.322Z,2.90
2017-12-09T16:00:11.614Z,2.90
2017-12-09T16:02:39.859Z,3.40
2017-12-09T16:05:08.129Z,3.40
2017-12-09T16:07:36.428Z,3.50
2017-12-09T16:10:04.721Z,3.50
2017-12-09T16:12:32.951Z,4.30
2017-12-09T16:15:01.368Z,3.10
2017-12-09T16:17:29.807Z,3.30
2017-12-09T16:19:58.029Z,3.00
2017-12-09T16:22:26.297Z,2.90
2017-12-09T16:24:54.582Z,3.60
2017-12-09T16:27:22.871Z,3.20
2017-12-09T16:29:51.169Z,2.60
2017-12-09T16:32:20.176Z,2.30
2017-12-09T16:34:48.433Z,2.20
2017-12-09T16:37:16.740Z,2.20
2017-12-09T16:39:45.061Z,2.30
2017-12-09T16:42:13.430Z,2.30
2017-12-09T16:44:41.913Z,2.10
2017-12-09T16:47:10.177Z,2.00
2017-12-09T16:49:38.513Z,1.60
2017-12-09T16:52:06.842Z,2.20
2017-12-09T16:54:35.154Z,2.60
2017-12-09T16:57:03.491Z,2.40
2017-12-09T16:59:31.878Z,2.70
2017-12-09T17:02:00.219Z,2.40
2017-12-09T17:04:28.519Z,2.30
2017-12-09T17:06:57.027Z,2.60
2017-12-09T17:09:25.302Z,2.20
2017-12-09T17:11:53.581Z,1.80
2017-12-09T17:14:22.777Z,1.60
2017-12-09T17:16:51.100Z,1.50
2017-12-09T17:19:19.354Z,1.20
2017-12-09T17:21:47.680Z,1.50
2017-12-09T17:24:15.909Z,1.30
2017-12-09T17:26:44.189Z,1.50
2017-12-09T17:29:13.328Z,1.30
2017-12-09T17:31:41.593Z,1.30
2017-12-09T17:34:09.939Z,1.30
2017-12-09T17:36:38.222Z,1.50
2017-12-09T17:39:06.488Z,1.50
2017-12-09T17:41:34.780Z,1.50
2017-12-09T17:44:03.207Z,1.50
2017-12-09T17:46:31.501Z,1.50
2017-12-09T17:49:00.609Z,1.50
2017-12-09T17:51:29.840Z,1.50
2017-12-09T17:53:58.160Z,1.50
2017-12-09T17:56:27.251Z,1.50
2017-12-09T17:58:55.552Z,1.50
2017-12-09T18:01:24.551Z,1.50
2017-12-09T18:03:52.807Z,1.50
2017-12-09T18:06:21.909Z,1.50
2017-12-09T18:08:50.164Z,1.50
2017-12-09T18:11:18.437Z,1.60
2017-12-09T18:13:46.816Z,1.50
2017-12-09T18:16:15.099Z,1.60
2017-12-09T18:18:43.403Z,1.70
2017-12-09T18:21:11.717Z,1.50
2017-12-09T18:23:39.964Z,1.60
2017-12-09T18:26:08.248Z,1.50
2017-12-09T18:28:36.548Z,1.50
2017-12-09T18:31:05.391Z,1.50
2017-12-09T18:33:33.660Z,1.50
2017-12-09T18:36:02.740Z,1.50
2017-12-09T18:38:31.785Z,1.50
2017-12-09T18:41:00.053Z,1.50
2017-12-09T18:43:29.175Z,1.50
2017-12-09T18:45:57.440Z,1.50
2017-12-09T18:48:25.727Z,1.60
2017-12-09T18:50:54.038Z,1.40
2017-12-09T18:53:23.513Z,1.40
2017-12-09T18:55:51.756Z,1.40
2017-12-09T18:58:20.107Z,1.40
2017-12-09T19:00:51.873Z,1.50
2017-12-09T19:03:20.170Z,1.40
2017-12-09T19:05:48.484Z,1.40
2017-12-09T19:08:16.799Z,1.40
2017-12-09T19:10:45.242Z,1.40
2017-12-09T19:13:13.478Z,1.50
2017-12-09T19:15:42.640Z,1.40
2017-12-09T19:18:10.994Z,1.50
2017-12-09T19:20:39.333Z,1.60
2017-12-09T19:23:07.579Z,1.50
2017-12-09T19:25:35.901Z,1.70
2017-12-09T19:28:05.113Z,1.50
2017-12-09T19:30:33.488Z,1.60
2017-12-09T19:33:02.643Z,1.60
2017-12-09T19:35:30.918Z,1.50
2017-12-09T19:37:59.182Z,1.50
2017-12-09T19:40:27.548Z,1.50
2017-12-09T19:42:56.603Z,1.60
2017-12-09T19:45:24.899Z,1.50
2017-12-09T19:47:54.002Z,1.60
2017-12-09T19:50:23.036Z,1.60
2017-12-09T19:52:51.278Z,1.60
2017-12-09T19:55:19.551Z,1.50
2017-12-09T19:57:47.862Z,1.50
2017-12-09T20:00:20.328Z,1.50
2017-12-09T20:02:48.622Z,1.50
2017-12-09T20:05:17.294Z,1.50
2017-12-09T20:07:45.611Z,1.60
2017-12-09T20:10:13.904Z,1.50
2017-12-09T20:12:43.042Z,1.60
2017-12-09T20:15:12.011Z,1.50
2017-12-09T20:17:40.306Z,1.60
2017-12-09T20:20:08.583Z,1.60
2017-12-09T20:22:36.905Z,1.50
2017-12-09T20:25:05.151Z,1.50
2017-12-09T20:27:33.416Z,1.60
2017-12-09T20:30:01.840Z,1.60
2017-12-09T20:32:30.154Z,1.60
2017-12-09T20:34:58.529Z,1.60
2017-12-09T20:37:26.862Z,1.70
2017-12-09T20:39:55.212Z,1.70
2017-12-09T20:42:23.537Z,1.60
2017-12-09T20:44:51.837Z,1.70
2017-12-09T20:47:20.102Z,1.60
2017-12-09T20:49:48.437Z,1.60
2017-12-09T20:52:16.823Z,1.70
2017-12-09T20:54:45.084Z,1.60
2017-12-09T20:57:13.373Z,1.60
2017-12-09T20:59:41.836Z,1.60
2017-12-09T21:02:10.125Z,1.60
2017-12-09T21:04:38.365Z,1.60
2017-12-09T21:07:06.717Z,1.60
2017-12-09T21:09:35.786Z,1.60
2017-12-09T21:12:05.817Z,1.60
2017-12-09T21:14:34.870Z,1.70
2017-12-09T21:17:03.150Z,1.60
2017-12-09T21:19:31.416Z,1.60
2017-12-09T21:21:59.752Z,1.80
2017-12-09T21:24:28.776Z,1.80
2017-12-09T21:26:57.014Z,1.80
2017-12-09T21:29:26.096Z,1.70
2017-12-09T21:31:54.423Z,1.70
2017-12-09T21:34:22.684Z,1.80
2017-12-09T21:36:51.011Z,1.80
2017-12-09T21:39:19.387Z,1.70
2017-12-09T21:41:47.649Z,1.90
2017-12-09T21:44:15.950Z,1.90
2017-12-09T21:46:44.239Z,1.80
2017-12-09T21:49:12.509Z,1.80
2017-12-09T21:51:40.900Z,1.90
2017-12-09T21:54:10.083Z,1.80
2017-12-09T21:56:38.408Z,1.80
2017-12-09T21:59:06.765Z,2.00
2017-12-09T22:01:35.922Z,1.90
2017-12-09T22:04:04.327Z,1.90
2017-12-09T22:06:32.733Z,1.80
2017-12-09T22:09:01.236Z,1.80
2017-12-09T22:11:29.560Z,1.90
2017-12-09T22:13:57.803Z,1.80
2017-12-09T22:16:26.107Z,1.80
2017-12-09T22:18:55.178Z,1.80
2017-12-09T22:21:23.474Z,1.70
2017-12-09T22:23:51.725Z,1.80
2017-12-09T22:26:20.818Z,1.90
2017-12-09T22:28:49.088Z,1.90
2017-12-09T22:31:17.344Z,1.90
2017-12-09T22:33:45.576Z,2.00
2017-12-09T22:36:13.840Z,1.80
2017-12-09T22:38:42.126Z,1.90
2017-12-09T22:41:10.365Z,1.80
2017-12-09T22:43:38.637Z,2.00
2017-12-09T22:46:06.925Z,2.00
2017-12-09T22:48:35.287Z,1.90
2017-12-09T22:51:03.767Z,1.90
2017-12-09T22:53:32.006Z,1.90
2017-12-09T22:56:00.263Z,2.00
2017-12-09T22:58:29.339Z,2.00
2017-12-09T23:00:57.600Z,2.00
2017-12-09T23:03:25.849Z,2.00
2017-12-09T23:05:54.108Z,2.00
2017-12-09T23:08:22.350Z,2.00
2017-12-09T23:10:50.598Z,2.10
2017-12-09T23:13:18.979Z,2.10
2017-12-09T23:15:47.266Z,2.00
2017-12-09T23:18:15.568Z,2.00
2017-12-09T23:20:44.624Z,2.10
2017-12-09T23:23:12.892Z,2.10
2017-12-09T23:25:41.242Z,2.10
2017-12-09T23:28:09.638Z,2.10
2017-12-09T23:30:37.910Z,2.20
2017-12-09T23:33:06.132Z,2.20
2017-12-09T23:35:34.510Z,3.30
2017-12-09T23:38:02.848Z,2.10
2017-12-09T23:40:31.911Z,2.20
2017-12-09T23:43:00.988Z,2.20
2017-12-09T23:45:30.050Z,2.20
2017-12-09T23:47:58.335Z,2.20
2017-12-09T23:50:26.640Z,2.10
2017-12-09T23:52:55.760Z,2.20
2017-12-09T23:55:24.026Z,2.20
2017-12-09T23:57:52.372Z,2.20
